Century Venus — 3FXD2 — position and weather

sailwx.info

Track history (hours):
 
Tides and Currents Weather Stations Pressure Air Temp Water Temp Dewpoint Dewpoint Depression Visibility Wind Speed Wind Dir Waves Ship Positions

Century Venus

Last reported at 2016-Apr-14 00:24 UTC. Time now 2016-Apr-30 09:06 UTC.
Position N 29°31' W 089°43'.
Warning: this ship's position is 16 days out of date.

Length 137 m; draft 8.1 m.

Type: Cargo ship. MMSI: 357069000.

Date/timePositionNaut miles runAvg speedWind from/ knotsBaromVisibWave heightAir tempDewpointWater temp
2016-Apr-14 00:24N 29°31' W 089°43'1414.3
2016-Apr-13 23:26N 29°39' W 089°57'  
2016-Apr-08 08:27N 30°04' W 090°54'0 0.0
2016-Apr-08 07:33N 30°04' W 090°54'0 0.0
2016-Apr-08 06:30N 30°04' W 090°54'4 3.7
2016-Apr-08 05:33N 30°03' W 090°50'7 5.6
2016-Apr-08 04:23N 30°01' W 090°43'6 7.7
2016-Apr-08 03:33N 30°03' W 090°36'8 6.8
2016-Apr-08 02:26N 29°60' W 090°28'25 1.8
2016-Apr-07 13:08N 29°56' W 089°60'0 0.0
2016-Apr-07 12:08N 29°56' W 089°60'0 0.0
2016-Apr-07 10:14N 29°56' W 089°60'0 0.0
2016-Apr-07 09:26N 29°56' W 089°60'68 3.3
2016-Apr-06 12:33N 28°55' W 089°25'13 9.8
2016-Apr-06 11:12N 28°43' W 089°20'  
Track history (hours):
 
Tides and Currents Weather Stations Pressure Air Temp Water Temp Dewpoint Dewpoint Depression Visibility Wind Speed Wind Dir Waves Ship Positions

Century Venus

Last reported at 2016-Apr-14 00:24 UTC. Time now 2016-Apr-30 09:06 UTC.
Position N 29°31' W 089°43'.
Warning: this ship's position is 16 days out of date.

Length 137 m; draft 8.1 m.

Type: Cargo ship. MMSI: 357069000.

Date/timePositionNaut miles runAvg speedWind from/ knotsBaromVisibWave heightAir tempDewpointWater temp
2016-Apr-14 00:24N 29°31' W 089°43'1414.3
2016-Apr-13 23:26N 29°39' W 089°57'  
2016-Apr-08 08:27N 30°04' W 090°54'0 0.0
2016-Apr-08 07:33N 30°04' W 090°54'0 0.0
2016-Apr-08 06:30N 30°04' W 090°54'4 3.7
2016-Apr-08 05:33N 30°03' W 090°50'7 5.6
2016-Apr-08 04:23N 30°01' W 090°43'6 7.7
2016-Apr-08 03:33N 30°03' W 090°36'8 6.8
2016-Apr-08 02:26N 29°60' W 090°28'25 1.8
2016-Apr-07 13:08N 29°56' W 089°60'0 0.0
2016-Apr-07 12:08N 29°56' W 089°60'0 0.0
2016-Apr-07 10:14N 29°56' W 089°60'0 0.0
2016-Apr-07 09:26N 29°56' W 089°60'68 3.3
2016-Apr-06 12:33N 28°55' W 089°25'13 9.8
2016-Apr-06 11:12N 28°43' W 089°20'  

Dump ship's entire track history